Crili — ZCPC6 — position and weather

sailwx.info

Track history (hours):
 
Tides and Currents Weather Stations Pressure Air Temp Water Temp Dewpoint Dewpoint Depression Visibility Wind Speed Wind Dir Waves Ship Positions

Crili

Last reported at 2017-Oct-17 14:23 UTC. Time now 2017-Oct-18 09:46 UTC.
Position N 26°44' W 080°03'.

Length 47 m; draft 2.4 m.

Type: Pleasure craft. MMSI: 319444000.

Date/timePositionNaut miles runAvg speedWind from/ knotsBaromVisibWave heightAir tempDewpointWater temp
2017-Oct-17 14:23N 26°44' W 080°03'0 0.0
2017-Oct-17 13:59N 26°44' W 080°03'0 0.0
2017-Oct-17 13:29N 26°44' W 080°03'  
2017-Oct-12 14:03N 26°51' W 080°01'110.5
2017-Oct-12 13:57N 26°52' W 080°01'511.0
2017-Oct-12 13:30N 26°56' W 080°02'  
2017-Oct-09 22:22N 36°55' W 075°55'512.7
2017-Oct-09 22:00N 36°57' W 076°00'16 0.9
2017-Oct-09 04:27N 36°50' W 076°18'0 0.0
2017-Oct-09 03:51N 36°50' W 076°18'0 0.0
2017-Oct-09 03:30N 36°50' W 076°18'0 0.0
2017-Oct-09 02:57N 36°50' W 076°18'0 0.0
2017-Oct-09 02:21N 36°50' W 076°18'0 0.0
2017-Oct-09 01:51N 36°50' W 076°18'0 0.0
2017-Oct-08 21:21N 36°50' W 076°18'0 0.0
2017-Oct-08 20:00N 36°50' W 076°18'0 0.0
2017-Oct-08 19:06N 36°50' W 076°18'0 0.0
2017-Oct-08 18:51N 36°50' W 076°18'0 0.0
2017-Oct-08 18:24N 36°50' W 076°18'0 0.0
2017-Oct-08 17:48N 36°50' W 076°18'0 0.0
2017-Oct-07 22:27N 36°50' W 076°18'0 0.0
2017-Oct-07 22:00N 36°50' W 076°18'0 0.0
2017-Oct-07 21:30N 36°50' W 076°18'0 0.0
2017-Oct-07 21:00N 36°50' W 076°18'0 0.0
2017-Oct-07 20:27N 36°50' W 076°18'0 0.0
2017-Oct-07 19:54N 36°50' W 076°18'0 0.0
2017-Oct-07 19:30N 36°50' W 076°18'1 2.6
2017-Oct-07 19:00N 36°51' W 076°18'11 7.0
2017-Oct-07 17:29N 36°59' W 076°10'613.2
2017-Oct-07 17:00N 36°57' W 076°03'  
Track history (hours):
 
Tides and Currents Weather Stations Pressure Air Temp Water Temp Dewpoint Dewpoint Depression Visibility Wind Speed Wind Dir Waves Ship Positions

Crili

Last reported at 2017-Oct-17 14:23 UTC. Time now 2017-Oct-18 09:46 UTC.
Position N 26°44' W 080°03'.

Length 47 m; draft 2.4 m.

Type: Pleasure craft. MMSI: 319444000.

Date/timePositionNaut miles runAvg speedWind from/ knotsBaromVisibWave heightAir tempDewpointWater temp
2017-Oct-17 14:23N 26°44' W 080°03'0 0.0
2017-Oct-17 13:59N 26°44' W 080°03'0 0.0
2017-Oct-17 13:29N 26°44' W 080°03'  
2017-Oct-12 14:03N 26°51' W 080°01'110.5
2017-Oct-12 13:57N 26°52' W 080°01'511.0
2017-Oct-12 13:30N 26°56' W 080°02'  
2017-Oct-09 22:22N 36°55' W 075°55'512.7
2017-Oct-09 22:00N 36°57' W 076°00'16 0.9
2017-Oct-09 04:27N 36°50' W 076°18'0 0.0
2017-Oct-09 03:51N 36°50' W 076°18'0 0.0
2017-Oct-09 03:30N 36°50' W 076°18'0 0.0
2017-Oct-09 02:57N 36°50' W 076°18'0 0.0
2017-Oct-09 02:21N 36°50' W 076°18'0 0.0
2017-Oct-09 01:51N 36°50' W 076°18'0 0.0
2017-Oct-08 21:21N 36°50' W 076°18'0 0.0
2017-Oct-08 20:00N 36°50' W 076°18'0 0.0
2017-Oct-08 19:06N 36°50' W 076°18'0 0.0
2017-Oct-08 18:51N 36°50' W 076°18'0 0.0
2017-Oct-08 18:24N 36°50' W 076°18'0 0.0
2017-Oct-08 17:48N 36°50' W 076°18'0 0.0
2017-Oct-07 22:27N 36°50' W 076°18'0 0.0
2017-Oct-07 22:00N 36°50' W 076°18'0 0.0
2017-Oct-07 21:30N 36°50' W 076°18'0 0.0
2017-Oct-07 21:00N 36°50' W 076°18'0 0.0
2017-Oct-07 20:27N 36°50' W 076°18'0 0.0
2017-Oct-07 19:54N 36°50' W 076°18'0 0.0
2017-Oct-07 19:30N 36°50' W 076°18'1 2.6
2017-Oct-07 19:00N 36°51' W 076°18'11 7.0
2017-Oct-07 17:29N 36°59' W 076°10'613.2
2017-Oct-07 17:00N 36°57' W 076°03'  

Dump ship's entire track history